createdAt,value
2022-12-20T00:01:30.629Z,101019.38
2022-12-20T00:03:59.685Z,101028.00
2022-12-20T00:06:26.699Z,101028.03
2022-12-20T00:08:58.792Z,101025.38
2022-12-20T00:11:26.872Z,101025.41
2022-12-20T00:13:53.390Z,101016.78
2022-12-20T00:16:22.674Z,101002.28
2022-12-20T00:18:53.891Z,101003.13
2022-12-20T00:21:20.418Z,101005.72
2022-12-20T00:23:46.755Z,101000.50
2022-12-20T00:26:16.262Z,101008.31
2022-12-20T00:28:43.363Z,101009.19
2022-12-20T00:31:10.892Z,101012.56
2022-12-20T00:33:38.391Z,101011.75
2022-12-20T00:36:06.685Z,101007.47
2022-12-20T00:38:34.120Z,101005.72
2022-12-20T00:41:01.305Z,101008.38
2022-12-20T00:43:28.881Z,101013.50
2022-12-20T00:45:55.225Z,101000.59
2022-12-20T00:48:22.120Z,101001.47
2022-12-20T00:50:48.699Z,101000.66
2022-12-20T00:53:15.178Z,100995.44
2022-12-20T00:55:46.471Z,100986.88
2022-12-20T00:58:13.553Z,100986.84
2022-12-20T01:00:40.201Z,100990.31
2022-12-20T01:03:07.213Z,100988.63
2022-12-20T01:05:33.744Z,100982.59
2022-12-20T01:08:00.232Z,100981.75
2022-12-20T01:10:27.290Z,100970.59
2022-12-20T01:12:54.323Z,100972.28
2022-12-20T01:15:21.231Z,100968.00
2022-12-20T01:17:48.377Z,100976.56
2022-12-20T01:20:14.675Z,100982.59
2022-12-20T01:22:47.238Z,100974.00
2022-12-20T01:25:14.079Z,100977.41
2022-12-20T01:27:40.368Z,100986.91
2022-12-20T01:30:07.238Z,100985.13
2022-12-20T01:32:33.533Z,100977.41
2022-12-20T01:34:59.805Z,100987.81
2022-12-20T01:37:26.162Z,100981.78
2022-12-20T01:39:52.444Z,100983.56
2022-12-20T01:42:18.732Z,100985.28
2022-12-20T01:44:45.099Z,100984.41
2022-12-20T01:47:13.032Z,100975.84
2022-12-20T01:49:44.632Z,100975.84
2022-12-20T01:52:22.769Z,100982.78
2022-12-20T01:54:55.082Z,100976.75
2022-12-20T01:57:29.365Z,100963.84
2022-12-20T01:59:57.378Z,100970.75
2022-12-20T02:02:24.757Z,100963.84
2022-12-20T02:04:51.139Z,100961.25
2022-12-20T02:07:24.641Z,100957.81
2022-12-20T02:09:54.387Z,100963.00
2022-12-20T02:12:24.704Z,100967.34
2022-12-20T02:15:22.817Z,100964.78
2022-12-20T02:17:51.975Z,100958.75
2022-12-20T02:20:47.920Z,100967.38
2022-12-20T02:23:35.234Z,100957.88
2022-12-20T02:26:48.653Z,100964.78
2022-12-20T02:29:30.632Z,100967.41
2022-12-20T02:32:22.558Z,100959.63
2022-12-20T02:34:50.772Z,100946.72
2022-12-20T02:37:17.726Z,100949.25
2022-12-20T02:39:46.062Z,100959.66
2022-12-20T02:42:16.413Z,100947.56
2022-12-20T02:45:19.595Z,100943.31
2022-12-20T02:47:54.957Z,100941.59
2022-12-20T02:50:26.418Z,100949.34
2022-12-20T02:52:53.517Z,100936.38
2022-12-20T02:55:29.289Z,100932.09
2022-12-20T02:58:03.434Z,100926.06
2022-12-20T03:00:37.313Z,100934.69
2022-12-20T03:03:24.161Z,100936.44
2022-12-20T03:05:54.159Z,100926.09
2022-12-20T03:08:22.022Z,100939.88
2022-12-20T03:10:49.801Z,100925.22
2022-12-20T03:13:16.738Z,100924.31
2022-12-20T03:15:43.259Z,100927.81
2022-12-20T03:18:10.756Z,100928.66
2022-12-20T03:20:37.447Z,100935.56
2022-12-20T03:23:04.283Z,100930.41
2022-12-20T03:25:30.736Z,100934.75
2022-12-20T03:27:57.128Z,100920.91
2022-12-20T03:30:23.663Z,100933.84
2022-12-20T03:32:50.080Z,100932.13
2022-12-20T03:35:16.671Z,100934.75
2022-12-20T03:37:43.132Z,100937.31
2022-12-20T03:40:10.212Z,100935.59
2022-12-20T03:42:37.092Z,100928.69
2022-12-20T03:45:06.309Z,100922.63
2022-12-20T03:47:32.699Z,100926.97
2022-12-20T03:49:59.056Z,100932.16
2022-12-20T03:52:26.807Z,100933.03
2022-12-20T03:54:53.189Z,100940.81
2022-12-20T03:57:19.679Z,100941.66
2022-12-20T03:59:46.150Z,100941.66
2022-12-20T04:02:12.692Z,100938.22
2022-12-20T04:04:39.226Z,100926.97
2022-12-20T04:07:05.630Z,100923.53
2022-12-20T04:09:31.928Z,100915.75
2022-12-20T04:11:58.241Z,100923.50
2022-12-20T04:14:24.643Z,100926.09
2022-12-20T04:16:50.982Z,100923.50
2022-12-20T04:19:17.380Z,100919.22
2022-12-20T04:21:43.961Z,100917.47
2022-12-20T04:24:10.511Z,100920.06
2022-12-20T04:26:37.532Z,100920.06
2022-12-20T04:29:04.886Z,100917.47
2022-12-20T04:31:31.544Z,100911.41
2022-12-20T04:33:58.246Z,100914.88
2022-12-20T04:36:24.882Z,100913.16
2022-12-20T04:38:51.357Z,100906.22
2022-12-20T04:41:24.046Z,100910.53
2022-12-20T04:43:57.530Z,100905.34
2022-12-20T04:46:26.297Z,100898.47
2022-12-20T04:48:58.281Z,100903.63
2022-12-20T04:51:26.295Z,100904.50
2022-12-20T04:53:53.515Z,100893.25
2022-12-20T04:56:28.810Z,100899.31
2022-12-20T04:58:56.930Z,100899.28
2022-12-20T05:01:23.471Z,100902.75
2022-12-20T05:03:50.401Z,100906.25
2022-12-20T05:06:16.933Z,100903.66
2022-12-20T05:08:43.355Z,100902.78
2022-12-20T05:11:09.760Z,100901.91
2022-12-20T05:13:36.507Z,100911.41
2022-12-20T05:16:03.021Z,100910.53
2022-12-20T05:18:29.695Z,100908.81
2022-12-20T05:21:17.520Z,100907.09
2022-12-20T05:24:02.760Z,100914.00
2022-12-20T05:26:32.377Z,100915.75
2022-12-20T05:28:58.801Z,100907.97
2022-12-20T05:31:25.179Z,100904.53
2022-12-20T05:33:51.495Z,100906.22
2022-12-20T05:36:18.204Z,100903.63
2022-12-20T05:38:44.624Z,100907.09
2022-12-20T05:41:11.007Z,100907.13
2022-12-20T05:43:37.441Z,100901.03
2022-12-20T05:46:03.766Z,100901.06
2022-12-20T05:48:30.218Z,100894.16
2022-12-20T05:50:56.859Z,100890.69
2022-12-20T05:53:23.809Z,100890.69
2022-12-20T05:55:52.424Z,100892.44
2022-12-20T05:58:19.160Z,100881.19
2022-12-20T06:00:47.280Z,100884.66
2022-12-20T06:03:17.614Z,100889.84
2022-12-20T06:05:45.331Z,100888.97
2022-12-20T06:08:12.416Z,100886.38
2022-12-20T06:10:40.416Z,100889.84
2022-12-20T06:13:08.108Z,100887.25
2022-12-20T06:15:34.482Z,100883.78
2022-12-20T06:18:01.019Z,100891.53
2022-12-20T06:20:28.441Z,100892.44
2022-12-20T06:22:54.899Z,100906.22
2022-12-20T06:25:21.257Z,100906.25
2022-12-20T06:27:47.613Z,100921.75
2022-12-20T06:30:14.368Z,100920.91
2022-12-20T06:32:40.678Z,100921.75
2022-12-20T06:35:07.696Z,100914.84
2022-12-20T06:37:34.070Z,100914.00
2022-12-20T06:40:00.414Z,100914.00
2022-12-20T06:42:26.843Z,100912.25
2022-12-20T06:44:53.183Z,100906.22
2022-12-20T06:47:20.061Z,100899.31
2022-12-20T06:49:46.437Z,100891.53
2022-12-20T06:52:12.782Z,100895.88
2022-12-20T06:54:39.101Z,100882.91
2022-12-20T06:57:06.709Z,100881.19
2022-12-20T06:59:33.213Z,100882.91
2022-12-20T07:01:59.696Z,100878.59
2022-12-20T07:04:26.253Z,100879.47
2022-12-20T07:06:52.680Z,100887.25
2022-12-20T07:09:19.528Z,100898.47
2022-12-20T07:11:45.841Z,100897.63
2022-12-20T07:14:13.510Z,100901.91
2022-12-20T07:16:42.596Z,100899.34
2022-12-20T07:19:15.348Z,100895.88
2022-12-20T07:21:42.837Z,100892.41
2022-12-20T07:24:09.981Z,100899.31
2022-12-20T07:26:36.424Z,100902.78
2022-12-20T07:29:03.898Z,100895.03
2022-12-20T07:31:30.337Z,100899.34
2022-12-20T07:33:56.783Z,100916.59
2022-12-20T07:36:23.143Z,100914.91
2022-12-20T07:38:49.478Z,100910.53
2022-12-20T07:41:18.091Z,100912.28
2022-12-20T07:43:44.885Z,100916.63
2022-12-20T07:46:14.201Z,100912.28
2022-12-20T07:48:40.661Z,100907.97
2022-12-20T07:51:18.815Z,100900.19
2022-12-20T07:53:58.928Z,100901.06
2022-12-20T07:56:26.934Z,100897.56
2022-12-20T07:58:58.873Z,100894.13
2022-12-20T08:01:27.620Z,100897.59
2022-12-20T08:04:02.347Z,100899.34
2022-12-20T08:06:29.832Z,100895.00
2022-12-20T08:09:01.092Z,100885.50
2022-12-20T08:11:28.817Z,100882.03
2022-12-20T08:13:58.135Z,100882.91
2022-12-20T08:16:25.817Z,100888.97
2022-12-20T08:18:52.711Z,100876.00
2022-12-20T08:21:19.128Z,100879.44
2022-12-20T08:23:45.581Z,100879.44
2022-12-20T08:26:11.915Z,100882.91
2022-12-20T08:28:38.327Z,100890.69
2022-12-20T08:31:07.442Z,100881.19
2022-12-20T08:33:35.886Z,100874.25
2022-12-20T08:36:06.245Z,100867.38
2022-12-20T08:38:33.312Z,100857.00
2022-12-20T08:41:07.676Z,100850.94
2022-12-20T08:43:34.648Z,100855.28
2022-12-20T08:46:01.082Z,100856.13
2022-12-20T08:48:27.635Z,100857.00
2022-12-20T08:51:00.933Z,100847.50
2022-12-20T08:53:28.529Z,100855.25
2022-12-20T08:56:02.682Z,100856.97
2022-12-20T08:58:29.023Z,100856.13
2022-12-20T09:01:04.536Z,100858.69
2022-12-20T09:03:33.404Z,100856.94
2022-12-20T09:06:00.248Z,100850.88
2022-12-20T09:08:26.983Z,100851.72
2022-12-20T09:10:53.905Z,100846.56
2022-12-20T09:13:21.556Z,100844.84
2022-12-20T09:15:48.056Z,100841.41
2022-12-20T09:18:14.404Z,100835.34
2022-12-20T09:20:45.277Z,100826.69
2022-12-20T09:23:12.137Z,100843.94
2022-12-20T09:25:38.613Z,100834.44
2022-12-20T09:28:05.939Z,100832.69
2022-12-20T09:30:32.785Z,100848.25
2022-12-20T09:33:10.182Z,100853.41
2022-12-20T09:35:37.317Z,100851.66
2022-12-20T09:38:06.116Z,100845.63
2022-12-20T09:40:33.168Z,100837.78
2022-12-20T09:42:59.920Z,100841.28
2022-12-20T09:45:29.530Z,100843.84
2022-12-20T09:47:55.893Z,100843.81
2022-12-20T09:50:46.801Z,100845.53
2022-12-20T09:53:34.304Z,100842.94
2022-12-20T09:56:13.638Z,100844.72
2022-12-20T09:59:18.598Z,100837.75
2022-12-20T10:01:47.369Z,100839.44
2022-12-20T10:04:34.314Z,100837.66
2022-12-20T10:07:06.719Z,100840.28
2022-12-20T10:09:54.450Z,100835.94
2022-12-20T10:12:42.412Z,100832.47
2022-12-20T10:15:20.466Z,100835.06
2022-12-20T10:18:17.208Z,100828.09
2022-12-20T10:20:43.575Z,100822.91
2022-12-20T10:23:32.835Z,100815.09
2022-12-20T10:25:59.706Z,100814.19
2022-12-20T10:28:29.453Z,100803.88
2022-12-20T10:31:01.787Z,100806.41
2022-12-20T10:33:29.289Z,100805.53
2022-12-20T10:35:55.806Z,100802.94
2022-12-20T10:38:23.961Z,100802.91
2022-12-20T10:41:23.168Z,100797.66
2022-12-20T10:43:56.210Z,100796.72
2022-12-20T10:46:24.122Z,100783.78
2022-12-20T10:48:51.733Z,100772.56
2022-12-20T10:51:21.900Z,100766.47
2022-12-20T10:54:03.214Z,100767.28
2022-12-20T10:56:32.386Z,100766.28
2022-12-20T10:59:23.612Z,100769.78
2022-12-20T11:01:50.494Z,100768.09
2022-12-20T11:04:32.576Z,100761.97
2022-12-20T11:07:02.687Z,100766.25
2022-12-20T11:09:29.132Z,100763.69
2022-12-20T11:12:14.101Z,100753.38
2022-12-20T11:14:43.698Z,100752.44
2022-12-20T11:17:33.034Z,100749.88
2022-12-20T11:20:42.867Z,100756.84
2022-12-20T11:23:27.856Z,100744.72
2022-12-20T11:26:28.936Z,100743.84
2022-12-20T11:29:20.191Z,100727.31
2022-12-20T11:32:21.153Z,100718.66
2022-12-20T11:35:06.161Z,100720.31
2022-12-20T11:37:56.053Z,100722.09
2022-12-20T11:40:34.236Z,100717.69
2022-12-20T11:43:30.917Z,100708.91
2022-12-20T11:46:38.836Z,100701.28
2022-12-20T11:49:13.690Z,100701.22
2022-12-20T11:51:47.924Z,100689.16
2022-12-20T11:54:28.848Z,100684.72
2022-12-20T11:57:05.233Z,100680.38
2022-12-20T11:59:42.504Z,100681.31
2022-12-20T12:02:13.487Z,100683.13
2022-12-20T12:04:50.686Z,100677.09
2022-12-20T12:07:21.923Z,100675.38
2022-12-20T12:10:01.558Z,100675.38
2022-12-20T12:12:41.110Z,100684.78
2022-12-20T12:15:28.011Z,100684.88
2022-12-20T12:17:54.528Z,100684.91
2022-12-20T12:20:35.092Z,100685.78
2022-12-20T12:23:40.241Z,100686.53
2022-12-20T12:26:16.116Z,100674.53
2022-12-20T12:28:42.487Z,100674.53
2022-12-20T12:31:18.410Z,100684.06
2022-12-20T12:34:05.985Z,100680.66
2022-12-20T12:37:03.075Z,100684.16
2022-12-20T12:40:10.374Z,100682.44
2022-12-20T12:42:58.997Z,100679.03
2022-12-20T12:45:46.427Z,100678.97
2022-12-20T12:48:12.778Z,100671.22
2022-12-20T12:50:45.217Z,100674.69
2022-12-20T12:53:34.087Z,100655.66
2022-12-20T12:56:46.637Z,100652.28
2022-12-20T12:59:13.215Z,100655.72
2022-12-20T13:01:50.749Z,100649.59
2022-12-20T13:04:20.315Z,100651.38
2022-12-20T13:07:23.202Z,100650.47
2022-12-20T13:09:49.633Z,100643.50
2022-12-20T13:12:51.507Z,100629.66
2022-12-20T13:15:21.059Z,100627.94
2022-12-20T13:17:56.614Z,100626.19
2022-12-20T13:20:32.081Z,100625.31
2022-12-20T13:23:07.682Z,100627.84
2022-12-20T13:25:48.218Z,100626.94
2022-12-20T13:28:23.476Z,100630.38
2022-12-20T13:31:02.311Z,100629.56
2022-12-20T13:33:47.463Z,100619.22
2022-12-20T13:36:17.663Z,100630.44
2022-12-20T13:38:57.285Z,100626.13
2022-12-20T13:41:44.259Z,100621.78
2022-12-20T13:44:32.405Z,100631.28
2022-12-20T13:47:11.359Z,100635.63
2022-12-20T13:49:40.630Z,100635.69
2022-12-20T13:52:28.544Z,100641.78
2022-12-20T13:54:58.331Z,100648.69
2022-12-20T13:57:32.957Z,100649.59
2022-12-20T14:00:07.058Z,100654.00
2022-12-20T14:02:40.260Z,100654.00
2022-12-20T14:05:14.809Z,100657.50
2022-12-20T14:07:42.415Z,100654.09
2022-12-20T14:10:24.201Z,100660.19
2022-12-20T14:12:54.261Z,100664.44
2022-12-20T14:15:25.745Z,100668.75
2022-12-20T14:17:52.549Z,100667.13
2022-12-20T14:20:26.163Z,100662.81
2022-12-20T14:23:04.233Z,100661.88
2022-12-20T14:25:53.694Z,100667.06
2022-12-20T14:28:31.614Z,100667.91
2022-12-20T14:31:01.145Z,100662.72
2022-12-20T14:33:39.374Z,100661.91
2022-12-20T14:36:19.013Z,100658.41
2022-12-20T14:38:48.391Z,100654.06
2022-12-20T14:41:30.345Z,100650.59
2022-12-20T14:44:02.295Z,100644.56
2022-12-20T14:46:30.899Z,100642.78
2022-12-20T14:49:15.960Z,100625.47
2022-12-20T14:51:42.930Z,100636.66
2022-12-20T14:57:23.816Z,100625.41
2022-12-20T15:00:07.232Z,100638.47
2022-12-20T15:02:42.908Z,100638.47
2022-12-20T15:05:39.757Z,100632.38
2022-12-20T15:08:19.956Z,100633.28
2022-12-20T15:11:09.423Z,100641.03
2022-12-20T15:13:49.247Z,100648.00
2022-12-20T15:16:21.985Z,100644.50
2022-12-20T15:18:50.381Z,100643.59
2022-12-20T15:21:35.355Z,100640.97
2022-12-20T15:24:07.669Z,100636.78
2022-12-20T15:26:35.674Z,100637.63
2022-12-20T15:29:02.145Z,100642.88
2022-12-20T15:31:33.615Z,100635.88
2022-12-20T15:34:03.595Z,100629.81
2022-12-20T15:36:30.043Z,100626.34
2022-12-20T15:39:14.711Z,100629.84
2022-12-20T15:41:44.771Z,100622.94
2022-12-20T15:44:17.409Z,100621.16
2022-12-20T15:46:44.326Z,100625.47
2022-12-20T15:49:15.987Z,100624.66
2022-12-20T15:51:44.333Z,100616.88
2022-12-20T15:54:33.062Z,100627.25
2022-12-20T15:57:07.310Z,100613.41
2022-12-20T15:59:59.861Z,100623.03
2022-12-20T16:02:25.266Z,100610.97
2022-12-20T16:04:53.478Z,100613.53
2022-12-20T16:07:20.241Z,100613.47
2022-12-20T16:09:46.666Z,100612.63
2022-12-20T16:12:20.449Z,100612.63
2022-12-20T16:14:46.803Z,100617.81
2022-12-20T16:17:15.888Z,100620.41
2022-12-20T16:19:43.262Z,100612.66
2022-12-20T16:22:17.911Z,100603.97
2022-12-20T16:24:45.379Z,100614.44
2022-12-20T16:27:11.798Z,100623.06
2022-12-20T16:29:38.200Z,100616.09
2022-12-20T16:32:14.362Z,100598.78
2022-12-20T16:34:40.862Z,100597.97
2022-12-20T16:37:07.692Z,100610.97
2022-12-20T16:39:33.973Z,100602.34
2022-12-20T16:42:01.589Z,100605.75
2022-12-20T16:44:27.969Z,100603.97
2022-12-20T16:46:55.851Z,100605.75
2022-12-20T16:49:22.248Z,100605.78
2022-12-20T16:51:49.141Z,100603.97
2022-12-20T16:54:20.730Z,100607.41
2022-12-20T16:56:49.335Z,100598.75
2022-12-20T16:59:21.190Z,100605.72
2022-12-20T17:01:49.672Z,100610.97
2022-12-20T17:04:18.455Z,100610.00
2022-12-20T17:06:45.294Z,100609.97
2022-12-20T17:11:56.567Z,100617.84
2022-12-20T17:14:22.972Z,100604.75
2022-12-20T17:16:49.373Z,100600.41
2022-12-20T17:19:16.220Z,100599.63
2022-12-20T17:24:31.148Z,100599.56
2022-12-20T17:26:58.178Z,100603.03
2022-12-20T17:29:24.493Z,100599.56
2022-12-20T17:31:51.454Z,100603.09
2022-12-20T17:34:18.805Z,100596.13
2022-12-20T17:36:46.247Z,100589.22
2022-12-20T17:39:12.635Z,100592.56
2022-12-20T17:41:39.663Z,100593.50
2022-12-20T17:44:06.624Z,100583.09
2022-12-20T17:46:34.061Z,100585.69
2022-12-20T17:49:00.551Z,100575.31
2022-12-20T17:51:29.652Z,100583.09
2022-12-20T17:54:03.885Z,100586.53
2022-12-20T17:56:36.685Z,100581.28
2022-12-20T17:59:12.527Z,100585.66
2022-12-20T18:01:39.625Z,100582.16
2022-12-20T18:04:09.993Z,100583.84
2022-12-20T18:06:40.602Z,100584.75
2022-12-20T18:09:16.138Z,100579.47
2022-12-20T18:11:42.734Z,100576.84
2022-12-20T18:14:10.455Z,100567.25
2022-12-20T18:16:38.907Z,100575.94
2022-12-20T18:19:07.410Z,100581.16
2022-12-20T18:21:34.690Z,100582.03
2022-12-20T18:24:01.222Z,100586.34
2022-12-20T18:26:29.986Z,100588.94
2022-12-20T18:28:59.571Z,100585.38
2022-12-20T18:31:28.951Z,100586.25
2022-12-20T18:33:58.227Z,100587.97
2022-12-20T18:36:30.779Z,100576.84
2022-12-20T18:38:59.357Z,100582.00
2022-12-20T18:41:28.554Z,100582.00
2022-12-20T18:44:01.019Z,100590.63
2022-12-20T18:46:28.270Z,100589.84
2022-12-20T18:48:56.955Z,100591.47
2022-12-20T18:51:26.335Z,100585.44
2022-12-20T18:53:55.175Z,100581.88
2022-12-20T18:56:26.663Z,100579.25
2022-12-20T18:58:53.077Z,100587.03
2022-12-20T19:01:22.065Z,100591.34
2022-12-20T19:03:50.376Z,100589.66
2022-12-20T19:06:17.277Z,100595.75
2022-12-20T19:08:43.754Z,100588.75
2022-12-20T19:11:13.708Z,100591.31
2022-12-20T19:13:41.561Z,100583.50
2022-12-20T19:16:11.671Z,100588.72
2022-12-20T19:18:40.057Z,100593.97
2022-12-20T19:21:17.604Z,100596.59
2022-12-20T19:23:46.659Z,100587.97
2022-12-20T19:26:16.780Z,100583.56
2022-12-20T19:28:43.680Z,100582.72
2022-12-20T19:31:21.531Z,100587.03
2022-12-20T19:33:49.687Z,100581.84
2022-12-20T19:36:25.703Z,100577.53
2022-12-20T19:38:57.875Z,100585.31
2022-12-20T19:41:30.497Z,100584.34
2022-12-20T19:43:57.856Z,100585.19
2022-12-20T19:46:29.125Z,100578.28
2022-12-20T19:48:57.958Z,100573.94
2022-12-20T19:51:25.454Z,100576.66
2022-12-20T19:53:53.501Z,100578.38
2022-12-20T19:56:22.833Z,100578.41
2022-12-20T19:58:49.756Z,100578.44
2022-12-20T20:01:17.850Z,100578.44
2022-12-20T20:03:45.122Z,100581.00
2022-12-20T20:06:11.789Z,100581.03
2022-12-20T20:08:38.539Z,100581.00
2022-12-20T20:11:09.321Z,100574.94
2022-12-20T20:13:37.683Z,100574.91
2022-12-20T20:16:06.420Z,100581.00
2022-12-20T20:18:35.405Z,100576.75
2022-12-20T20:21:09.405Z,100582.00
2022-12-20T20:23:37.343Z,100575.03
2022-12-20T20:26:09.591Z,100576.78
2022-12-20T20:28:44.847Z,100581.06
2022-12-20T20:31:14.700Z,100579.22
2022-12-20T20:33:41.852Z,100576.66
2022-12-20T20:36:12.295Z,100577.47
2022-12-20T20:38:38.779Z,100583.53
2022-12-20T20:41:06.421Z,100576.63
2022-12-20T20:43:36.574Z,100576.66
2022-12-20T20:46:05.974Z,100569.72
2022-12-20T20:48:32.391Z,100578.44
2022-12-20T20:50:58.965Z,100574.09
2022-12-20T20:53:31.037Z,100578.38
2022-12-20T20:55:59.627Z,100581.06
2022-12-20T20:58:25.990Z,100571.59
2022-12-20T21:00:56.742Z,100576.69
2022-12-20T21:03:23.092Z,100577.63
2022-12-20T21:08:36.837Z,100575.78
2022-12-20T21:11:07.426Z,100574.84
2022-12-20T21:13:34.683Z,100579.19
2022-12-20T21:16:10.110Z,100584.38
2022-12-20T21:18:36.629Z,100580.97
2022-12-20T21:21:08.280Z,100571.50
2022-12-20T21:23:34.997Z,100565.38
2022-12-20T21:26:01.499Z,100579.25
2022-12-20T21:28:30.119Z,100571.47
2022-12-20T21:31:04.970Z,100566.25
2022-12-20T21:33:31.355Z,100580.03
2022-12-20T21:36:05.061Z,100573.13
2022-12-20T21:38:32.536Z,100571.47
2022-12-20T21:41:07.869Z,100571.41
2022-12-20T21:43:34.844Z,100577.53
2022-12-20T21:46:01.558Z,100568.91
2022-12-20T21:48:29.563Z,100573.19
2022-12-20T21:51:11.157Z,100563.56
2022-12-20T21:53:43.393Z,100572.22
2022-12-20T21:56:09.916Z,100563.47
2022-12-20T21:58:36.255Z,100561.81
2022-12-20T22:01:04.358Z,100552.41
2022-12-20T22:03:31.036Z,100555.81
2022-12-20T22:05:57.597Z,100560.16
2022-12-20T22:08:27.785Z,100551.47
2022-12-20T22:11:01.896Z,100551.44
2022-12-20T22:13:31.200Z,100555.94
2022-12-20T22:16:00.217Z,100560.19
2022-12-20T22:18:26.648Z,100557.59
2022-12-20T22:20:53.049Z,100565.34
2022-12-20T22:23:19.428Z,100558.41
2022-12-20T22:25:45.895Z,100554.97
2022-12-20T22:28:12.707Z,100557.56
2022-12-20T22:30:42.741Z,100549.72
2022-12-20T22:33:09.150Z,100555.00
2022-12-20T22:35:37.506Z,100562.75
2022-12-20T22:38:05.263Z,100558.47
2022-12-20T22:40:33.269Z,100564.59
2022-12-20T22:42:59.819Z,100574.94
2022-12-20T22:45:29.258Z,100563.59
2022-12-20T22:47:55.614Z,100563.63
2022-12-20T22:50:24.477Z,100561.84
2022-12-20T22:52:53.582Z,100567.06
2022-12-20T22:55:19.967Z,100564.47
2022-12-20T22:57:46.375Z,100568.78
2022-12-20T23:00:14.592Z,100570.53
2022-12-20T23:02:42.979Z,100561.84
2022-12-20T23:05:09.693Z,100562.66
2022-12-20T23:07:36.179Z,100557.56
2022-12-20T23:10:02.695Z,100562.81
2022-12-20T23:12:47.754Z,100563.69
2022-12-20T23:15:32.952Z,100568.78
2022-12-20T23:17:59.338Z,100572.22
2022-12-20T23:20:44.440Z,100570.50
2022-12-20T23:23:10.805Z,100563.56
2022-12-20T23:25:40.073Z,100556.63
2022-12-20T23:28:06.384Z,100551.53
2022-12-20T23:30:33.199Z,100554.13
2022-12-20T23:32:59.624Z,100552.34
2022-12-20T23:35:26.844Z,100552.31
2022-12-20T23:37:55.884Z,100553.97
2022-12-20T23:40:22.165Z,100547.03
2022-12-20T23:42:48.519Z,100548.69
2022-12-20T23:45:15.080Z,100547.91
2022-12-20T23:47:41.433Z,100538.47
2022-12-20T23:50:08.329Z,100539.38
2022-12-20T23:52:34.716Z,100543.63
2022-12-20T23:55:01.261Z,100533.19
2022-12-20T23:57:30.314Z,100537.66
2022-12-20T23:59:57.245Z,100535.97
